Time;durP1;ratioP1;P1;durP2;ratioP2;P2;SDS_P1;SDS_P2;PMS_P1;PMS_P2;Temp;Humidity;BMP_temperature;BMP_pressure;BME280_temperature;BME280_humidity;BME280_pressure;Samples;Min_cycle;Max_cycle;Signal;HPM_P1;HPM_P2
2021/03/17 00:00:58;;;;;;;1.75;1.23;;;17.70;50.40;;;;;;5005281;28;20033;-61
2021/03/17 00:03:24;;;;;;;1.73;1.35;;;17.60;50.50;;;;;;4988961;28;20050;-65
2021/03/17 00:05:50;;;;;;;2.92;1.50;;;17.60;50.60;;;;;;4989051;28;20038;-64
2021/03/17 00:08:19;;;;;;;2.67;1.48;;;17.60;50.70;;;;;;4987972;28;20058;-63
2021/03/17 00:10:49;;;;;;;2.50;1.50;;;17.50;50.70;;;;;;4988162;28;20041;-64
2021/03/17 00:13:15;;;;;;;2.40;1.30;;;17.50;50.80;;;;;;4988683;28;20050;-62
2021/03/17 00:15:42;;;;;;;2.15;1.38;;;17.50;50.90;;;;;;4988279;28;20585;-59
2021/03/17 00:18:09;;;;;;;2.83;1.20;;;17.40;50.90;;;;;;4987915;28;20030;-62
2021/03/17 00:20:35;;;;;;;2.70;1.13;;;17.50;51.00;;;;;;4985978;28;20054;-64
2021/03/17 00:23:00;;;;;;;3.60;1.20;;;17.40;50.90;;;;;;4988688;28;20026;-64
2021/03/17 00:25:30;;;;;;;5.25;1.55;;;17.40;50.90;;;;;;4988084;28;20034;-64
2021/03/17 00:27:57;;;;;;;4.60;1.38;;;17.50;50.80;;;;;;5002183;28;20034;-64
2021/03/17 00:30:23;;;;;;;2.10;1.20;;;17.50;50.90;;;;;;4987789;28;20114;-65
2021/03/17 00:32:48;;;;;;;5.38;1.30;;;17.40;50.90;;;;;;4987530;28;20090;-64
2021/03/17 00:35:14;;;;;;;3.63;1.30;;;17.40;50.80;;;;;;4987546;28;20042;-65
2021/03/17 00:37:39;;;;;;;2.40;1.27;;;17.40;50.80;;;;;;4986399;28;20030;-61
2021/03/17 00:40:05;;;;;;;3.55;1.52;;;17.40;50.80;;;;;;4986483;28;20038;-64
2021/03/17 00:42:31;;;;;;;3.28;1.23;;;17.50;50.70;;;;;;4988113;28;20042;-63
2021/03/17 00:44:56;;;;;;;2.22;1.38;;;17.50;50.70;;;;;;5002744;28;20038;-62
2021/03/17 00:47:22;;;;;;;2.05;1.10;;;17.50;50.60;;;;;;4987395;28;20400;-59
2021/03/17 00:49:47;;;;;;;3.13;1.20;;;17.50;50.60;;;;;;4987552;28;20034;-64
2021/03/17 00:52:13;;;;;;;2.70;1.23;;;17.50;50.60;;;;;;4987382;28;20034;-60
2021/03/17 00:54:38;;;;;;;1.85;0.90;;;17.50;50.50;;;;;;5002655;28;20031;-59
2021/03/17 00:57:04;;;;;;;2.85;1.13;;;17.50;50.40;;;;;;4987081;28;20042;-66
2021/03/17 00:59:30;;;;;;;1.80;1.10;;;17.50;50.30;;;;;;4987966;28;20472;-64
2021/03/17 01:01:56;;;;;;;1.70;1.20;;;17.50;50.20;;;;;;4987016;28;20681;-62
2021/03/17 01:04:22;;;;;;;3.40;0.90;;;17.50;50.20;;;;;;4987052;28;20116;-60
2021/03/17 01:06:48;;;;;;;2.22;1.30;;;17.60;50.20;;;;;;4987259;28;20065;-62
2021/03/17 01:09:14;;;;;;;2.13;1.27;;;17.60;50.20;;;;;;4987522;28;20030;-62
2021/03/17 01:11:39;;;;;;;2.85;1.30;;;17.50;50.10;;;;;;4986884;28;20037;-62
2021/03/17 01:14:05;;;;;;;3.97;1.15;;;17.50;50.20;;;;;;4986499;28;20038;-64
2021/03/17 01:16:30;;;;;;;2.17;1.25;;;17.50;50.30;;;;;;4985373;28;20464;-62
2021/03/17 01:18:56;;;;;;;1.88;1.00;;;17.50;50.30;;;;;;4986775;28;20513;-62
2021/03/17 01:21:21;;;;;;;1.88;1.27;;;17.50;50.20;;;;;;4987242;28;20053;-59
2021/03/17 01:23:47;;;;;;;2.42;1.15;;;17.50;50.10;;;;;;4987058;28;20093;-62
2021/03/17 01:26:12;;;;;;;1.35;0.95;;;17.60;50.00;;;;;;4987192;28;20112;-61
2021/03/17 01:28:39;;;;;;;2.47;1.33;;;17.60;49.80;;;;;;4986760;28;20432;-62
2021/03/17 01:31:04;;;;;;;1.20;0.75;;;17.60;49.70;;;;;;4987576;28;20493;-64
2021/03/17 01:33:30;;;;;;;1.65;0.80;;;17.70;49.60;;;;;;4987762;28;20042;-64
2021/03/17 01:35:56;;;;;;;2.70;1.15;;;17.70;49.50;;;;;;4985697;28;20042;-61
2021/03/17 01:38:22;;;;;;;1.65;0.90;;;17.70;49.40;;;;;;4986673;28;20133;-63
2021/03/17 01:40:48;;;;;;;2.72;1.05;;;17.70;49.40;;;;;;4986709;28;20034;-66
2021/03/17 01:43:13;;;;;;;1.92;1.05;;;17.70;49.40;;;;;;4986432;28;20030;-62
2021/03/17 01:45:39;;;;;;;2.88;1.00;;;17.60;49.40;;;;;;4986915;28;20038;-64
2021/03/17 01:48:05;;;;;;;1.92;1.20;;;17.60;49.40;;;;;;4986465;28;20042;-65
2021/03/17 01:50:36;;;;;;;3.15;1.40;;;17.60;49.40;;;;;;4987266;28;20292;-64
2021/03/17 01:53:14;;;;;;;1.83;1.08;;;17.60;49.40;;;;;;4998598;28;20027;-64
2021/03/17 01:55:39;;;;;;;2.13;1.30;;;17.60;49.40;;;;;;4986472;28;20038;-62
2021/03/17 01:58:06;;;;;;;2.83;1.10;;;17.60;49.40;;;;;;4986542;28;20038;-62
2021/03/17 02:00:31;;;;;;;3.13;1.13;;;17.60;49.40;;;;;;4985907;28;20038;-59
2021/03/17 02:02:57;;;;;;;2.33;1.02;;;17.60;49.40;;;;;;4969216;28;20049;-62
2021/03/17 02:05:25;;;;;;;3.33;1.00;;;17.60;49.40;;;;;;4986156;28;20125;-60
2021/03/17 02:07:56;;;;;;;1.98;1.23;;;17.60;49.40;;;;;;4994403;28;20051;-62
2021/03/17 02:10:22;;;;;;;2.30;1.30;;;17.60;49.30;;;;;;4986414;28;20039;-61
2021/03/17 02:13:08;;;;;;;3.13;1.35;;;17.60;49.40;;;;;;4988438;28;20648;-66
2021/03/17 02:15:46;;;;;;;3.33;1.23;;;17.60;49.40;;;;;;4989275;28;20420;-62
2021/03/17 02:18:20;;;;;;;1.38;0.90;;;17.50;49.60;;;;;;4988612;28;20034;-64
2021/03/17 02:21:15;;;;;;;1.85;1.23;;;17.40;49.70;;;;;;4989071;28;20042;-65
2021/03/17 02:24:04;;;;;;;2.45;1.00;;;17.50;49.80;;;;;;4988814;28;20129;-62
2021/03/17 02:26:58;;;;;;;1.95;1.10;;;17.50;49.80;;;;;;4981690;28;20064;-64
2021/03/17 02:29:26;;;;;;;6.60;1.27;;;17.40;49.70;;;;;;4964591;28;20041;-64
2021/03/17 02:31:55;;;;;;;1.80;0.88;;;17.40;49.80;;;;;;4980356;28;20030;-62
2021/03/17 02:34:24;;;;;;;3.83;0.90;;;17.40;49.80;;;;;;4968794;28;20027;-62
2021/03/17 02:36:56;;;;;;;2.35;1.02;;;17.40;49.90;;;;;;4993610;28;20059;-63
2021/03/17 02:39:38;;;;;;;1.55;0.98;;;17.40;49.90;;;;;;4974847;28;20035;-62
2021/03/17 02:42:24;;;;;;;2.50;0.75;;;17.40;50.00;;;;;;4985306;28;20026;-65
2021/03/17 02:45:09;;;;;;;3.53;1.10;;;17.30;50.00;;;;;;4987962;28;20046;-65
2021/03/17 02:47:47;;;;;;;2.70;1.05;;;17.30;50.00;;;;;;4989383;28;20046;-64
2021/03/17 02:50:13;;;;;;;1.73;0.65;;;17.30;50.00;;;;;;4972678;28;20030;-63
2021/03/17 02:52:42;;;;;;;2.35;0.73;;;17.40;50.00;;;;;;5004613;28;20042;-62
2021/03/17 02:55:08;;;;;;;1.67;0.95;;;17.40;49.90;;;;;;4988849;28;20124;-62
2021/03/17 02:57:36;;;;;;;2.13;0.80;;;17.40;49.90;;;;;;4989623;28;20788;-62
2021/03/17 03:00:02;;;;;;;2.47;1.02;;;17.50;49.80;;;;;;4972355;28;20539;-60
2021/03/17 03:02:27;;;;;;;1.73;1.00;;;17.50;49.70;;;;;;4988218;28;20492;-65
2021/03/17 03:04:53;;;;;;;1.98;0.80;;;17.50;49.60;;;;;;5004077;28;20038;-62
2021/03/17 03:07:21;;;;;;;2.25;0.90;;;17.50;49.50;;;;;;4989512;28;20066;-62
2021/03/17 03:09:47;;;;;;;3.50;0.98;;;17.60;49.50;;;;;;4972035;28;20035;-61
2021/03/17 03:12:12;;;;;;;3.08;0.90;;;17.60;49.40;;;;;;4975911;28;20041;-65
2021/03/17 03:14:38;;;;;;;2.00;1.02;;;17.60;49.40;;;;;;4987927;28;20753;-62
2021/03/17 03:17:04;;;;;;;0.93;0.63;;;17.60;49.30;;;;;;4987797;28;20156;-62
2021/03/17 03:19:31;;;;;;;2.25;0.98;;;17.60;49.30;;;;;;4988016;28;20616;-65
2021/03/17 03:21:56;;;;;;;1.95;0.90;;;17.60;49.20;;;;;;4987719;28;20037;-65
2021/03/17 03:24:22;;;;;;;2.65;1.10;;;17.60;49.20;;;;;;4962692;28;20031;-62
2021/03/17 03:26:57;;;;;;;2.60;1.05;;;17.70;49.20;;;;;;4977179;28;20030;-64
2021/03/17 03:29:24;;;;;;;2.20;0.77;;;17.70;49.10;;;;;;4974710;28;20035;-64
2021/03/17 03:31:49;;;;;;;1.38;0.77;;;17.70;49.10;;;;;;4974839;28;20039;-62
2021/03/17 03:34:16;;;;;;;1.63;0.60;;;17.70;49.00;;;;;;4975757;28;20467;-59
2021/03/17 03:36:42;;;;;;;1.77;1.00;;;17.70;49.00;;;;;;4970286;28;20410;-65
2021/03/17 03:39:08;;;;;;;1.55;0.60;;;17.70;48.90;;;;;;4974944;28;20039;-64
2021/03/17 03:41:33;;;;;;;2.10;0.80;;;17.70;48.80;;;;;;4995377;28;20520;-62
2021/03/17 03:43:59;;;;;;;1.45;0.73;;;17.80;49.40;;;;;;4981207;28;20023;-63
2021/03/17 03:46:24;;;;;;;2.03;1.02;;;17.80;48.80;;;;;;4970246;28;20635;-64
2021/03/17 03:48:50;;;;;;;1.83;0.82;;;17.80;48.80;;;;;;4975039;28;20035;-63
2021/03/17 03:51:18;;;;;;;2.00;1.13;;;17.80;48.80;;;;;;4975601;28;20438;-59
2021/03/17 03:54:08;;;;;;;1.90;0.50;;;17.80;48.80;;;;;;4983422;28;20045;-64
2021/03/17 03:57:08;;;;;;;2.78;1.10;;;17.80;48.80;;;;;;4982207;28;20433;-62
2021/03/17 03:59:37;;;;;;;1.63;0.88;;;17.80;48.80;;;;;;4968389;28;20552;-63
2021/03/17 04:02:02;;;;;;;1.38;0.80;;;17.80;48.80;;;;;;4987450;28;20141;-63
2021/03/17 04:04:32;;;;;;;1.23;0.75;;;17.80;48.80;;;;;;4970860;28;20458;-65
2021/03/17 04:07:01;;;;;;;3.47;0.70;;;17.70;48.80;;;;;;4988051;28;20038;-62
2021/03/17 04:09:31;;;;;;;2.05;0.80;;;17.70;48.80;;;;;;4986866;28;20112;-61
2021/03/17 04:11:58;;;;;;;0.98;0.50;;;17.80;48.80;;;;;;4987290;28;20126;-62
2021/03/17 04:14:25;;;;;;;2.58;1.00;;;17.70;48.80;;;;;;4987527;28;20053;-66
2021/03/17 04:16:51;;;;;;;2.10;0.77;;;17.70;48.70;;;;;;4987070;28;20085;-63
2021/03/17 04:19:16;;;;;;;2.17;0.52;;;17.80;48.70;;;;;;4986086;28;20045;-62
2021/03/17 04:21:42;;;;;;;1.67;0.60;;;17.70;48.60;;;;;;4970404;28;20030;-64
2021/03/17 04:24:08;;;;;;;2.35;0.88;;;17.80;48.60;;;;;;4969044;28;20026;-65
2021/03/17 04:26:33;;;;;;;3.25;1.10;;;17.70;48.60;;;;;;4969936;28;20042;-63
2021/03/17 04:28:59;;;;;;;1.92;0.50;;;17.70;48.50;;;;;;4988095;28;20033;-62
2021/03/17 04:31:24;;;;;;;1.25;0.93;;;17.80;48.40;;;;;;5002497;28;20050;-63
2021/03/17 04:33:50;;;;;;;1.65;0.88;;;17.80;48.20;;;;;;4961840;28;20488;-65
2021/03/17 04:36:16;;;;;;;2.33;1.10;;;17.90;48.20;;;;;;4986483;28;20034;-65
2021/03/17 04:38:41;;;;;;;2.47;0.73;;;17.90;48.10;;;;;;4970081;28;20026;-65
2021/03/17 04:41:07;;;;;;;2.70;0.88;;;17.90;48.00;;;;;;4986775;28;20037;-63
2021/03/17 04:43:37;;;;;;;2.50;0.63;;;17.90;48.00;;;;;;5003448;28;20043;-65
2021/03/17 04:46:02;;;;;;;1.17;0.73;;;17.80;47.90;;;;;;4986752;28;20121;-65
2021/03/17 04:48:28;;;;;;;1.83;0.77;;;17.80;47.90;;;;;;4986186;28;20114;-64
2021/03/17 04:50:54;;;;;;;1.55;0.80;;;17.80;47.80;;;;;;4987514;28;20417;-64
2021/03/17 04:53:19;;;;;;;3.95;0.70;;;17.80;47.90;;;;;;5001211;28;20038;-66
2021/03/17 04:55:45;;;;;;;1.42;0.73;;;17.80;47.90;;;;;;4987753;28;20691;-62
2021/03/17 04:58:14;;;;;;;5.68;1.00;;;17.80;47.80;;;;;;4985865;28;20037;-64
2021/03/17 05:00:40;;;;;;;3.13;0.90;;;17.80;47.90;;;;;;5001579;28;20045;-62
2021/03/17 05:03:08;;;;;;;1.90;1.00;;;17.70;47.80;;;;;;4987235;28;20044;-66
2021/03/17 05:05:35;;;;;;;2.75;0.95;;;17.80;47.80;;;;;;4970526;28;20049;-63
2021/03/17 05:08:02;;;;;;;1.70;1.00;;;17.80;47.80;;;;;;4985112;28;20635;-62
2021/03/17 05:10:28;;;;;;;2.25;0.60;;;17.70;47.70;;;;;;4965270;28;20038;-65
2021/03/17 05:12:54;;;;;;;1.42;0.80;;;17.70;47.70;;;;;;4985954;28;20041;-62
2021/03/17 05:15:19;;;;;;;1.08;0.85;;;17.70;47.80;;;;;;4986901;28;20042;-63
2021/03/17 05:17:49;;;;;;;2.35;0.73;;;17.70;47.80;;;;;;4986996;28;20038;-64
2021/03/17 05:20:22;;;;;;;2.78;0.73;;;17.70;47.70;;;;;;5001359;28;20038;-63
2021/03/17 05:22:48;;;;;;;0.68;0.65;;;17.70;47.70;;;;;;4985299;28;20501;-64
2021/03/17 05:25:15;;;;;;;1.58;0.60;;;17.70;47.70;;;;;;4986865;28;20030;-64
2021/03/17 05:27:40;;;;;;;1.80;0.98;;;17.70;47.80;;;;;;4986435;28;20097;-65
2021/03/17 05:30:07;;;;;;;2.03;1.02;;;17.60;47.80;;;;;;4968723;28;20042;-63
2021/03/17 05:32:33;;;;;;;2.17;0.63;;;17.60;48.00;;;;;;4987460;28;20042;-65
2021/03/17 05:35:00;;;;;;;2.13;0.98;;;17.60;48.10;;;;;;4987694;28;20521;-64
2021/03/17 05:37:26;;;;;;;2.85;1.00;;;17.50;48.30;;;;;;4986068;28;20110;-65
2021/03/17 05:39:52;;;;;;;2.70;1.20;;;17.50;48.40;;;;;;4985099;28;20137;-61
2021/03/17 05:42:18;;;;;;;5.15;1.20;;;17.50;48.50;;;;;;4986120;28;20030;-59
2021/03/17 05:44:43;;;;;;;3.03;0.77;;;17.50;48.60;;;;;;4985311;28;20105;-64
2021/03/17 05:47:09;;;;;;;1.95;1.00;;;17.50;48.70;;;;;;4985794;28;20057;-64
2021/03/17 05:49:36;;;;;;;3.83;1.38;;;17.40;48.80;;;;;;4986494;28;20624;-61
2021/03/17 05:52:02;;;;;;;2.28;1.20;;;17.40;48.90;;;;;;4987552;28;20050;-62
2021/03/17 05:54:27;;;;;;;3.35;1.38;;;17.40;49.10;;;;;;4986337;28;20089;-63
2021/03/17 05:56:53;;;;;;;1.73;0.80;;;17.40;49.20;;;;;;4986007;28;20039;-60
2021/03/17 05:59:19;;;;;;;2.10;0.80;;;17.40;49.30;;;;;;4966719;28;20093;-61
2021/03/17 06:01:44;;;;;;;3.40;0.70;;;17.40;49.50;;;;;;4976828;28;20505;-63
2021/03/17 06:04:10;;;;;;;5.50;1.20;;;17.40;49.60;;;;;;4985291;28;20030;-61
2021/03/17 06:06:37;;;;;;;1.42;0.73;;;17.40;49.70;;;;;;4999344;28;20031;-63
2021/03/17 06:09:03;;;;;;;5.90;0.82;;;17.40;49.80;;;;;;4985053;28;20124;-62
2021/03/17 06:11:28;;;;;;;3.13;0.77;;;17.40;49.90;;;;;;4967234;28;20065;-60
2021/03/17 06:13:54;;;;;;;1.70;0.90;;;17.40;49.90;;;;;;4983474;28;20050;-61
2021/03/17 06:16:21;;;;;;;3.53;1.25;;;17.40;49.90;;;;;;4999529;28;20041;-60
2021/03/17 06:18:50;;;;;;;3.75;1.33;;;17.40;49.90;;;;;;4984718;28;20054;-60
2021/03/17 06:21:19;;;;;;;3.92;0.90;;;17.40;49.90;;;;;;4984516;28;20415;-62
2021/03/17 06:23:48;;;;;;;1.33;0.90;;;17.40;49.90;;;;;;4999461;28;20072;-63
2021/03/17 06:26:15;;;;;;;3.05;1.00;;;17.40;49.90;;;;;;4966812;28;20468;-58
2021/03/17 06:28:40;;;;;;;4.72;0.95;;;17.40;49.90;;;;;;4982049;28;20681;-62
2021/03/17 06:31:06;;;;;;;2.17;1.25;;;17.40;49.80;;;;;;4998801;28;20037;-63
2021/03/17 06:33:31;;;;;;;3.13;1.25;;;17.40;49.80;;;;;;4984192;28;20049;-61
2021/03/17 06:36:13;;;;;;;1.30;1.20;;;17.40;49.80;;;;;;4983936;28;20078;-60
2021/03/17 06:38:38;;;;;;;3.65;1.40;;;17.40;49.80;;;;;;4982324;28;20034;-62
2021/03/17 06:41:04;;;;;;;4.07;1.23;;;17.40;49.70;;;;;;4983851;28;20042;-60
2021/03/17 06:43:43;;;;;;;2.13;1.38;;;17.40;49.70;;;;;;4983942;28;20046;-61
2021/03/17 06:46:10;;;;;;;1.98;1.27;;;17.40;49.60;;;;;;4982836;28;20031;-62
2021/03/17 06:48:37;;;;;;;2.58;1.63;;;17.50;49.50;;;;;;4984583;28;20133;-62
2021/03/17 06:51:05;;;;;;;4.05;2.35;;;17.50;49.70;;;;;;4983331;28;20453;-63
2021/03/17 06:54:09;;;;;;;7.13;3.15;;;17.50;50.00;;;;;;4982750;28;20789;-63
2021/03/17 06:56:38;;;;;;;7.60;3.15;;;17.60;50.00;;;;;;4963605;28;20488;-63
2021/03/17 06:59:05;;;;;;;6.97;2.80;;;17.60;50.00;;;;;;4982365;28;20039;-63
2021/03/17 07:01:40;;;;;;;7.72;2.72;;;17.60;49.90;;;;;;4986751;28;20038;-63
2021/03/17 07:04:08;;;;;;;7.38;2.78;;;17.60;49.90;;;;;;4987735;28;20498;-63
2021/03/17 07:06:34;;;;;;;7.03;2.92;;;17.70;49.90;;;;;;4988505;28;20039;-60
2021/03/17 07:09:15;;;;;;;6.05;2.83;;;17.70;49.90;;;;;;4987863;28;20173;-61
2021/03/17 07:11:41;;;;;;;4.18;2.30;;;17.70;49.90;;;;;;4995237;28;20054;-59
2021/03/17 07:14:06;;;;;;;8.90;2.80;;;17.70;49.70;;;;;;4988033;28;20405;-58
2021/03/17 07:16:37;;;;;;;6.22;2.55;;;17.60;49.70;;;;;;4985986;28;20035;-60
2021/03/17 07:19:04;;;;;;;5.78;2.17;;;17.60;49.80;;;;;;4987516;28;20109;-63
2021/03/17 07:21:31;;;;;;;4.30;2.30;;;17.60;49.80;;;;;;4976275;28;20528;-59
2021/03/17 07:23:56;;;;;;;4.50;2.00;;;17.60;49.90;;;;;;4968415;28;20124;-58
2021/03/17 07:26:26;;;;;;;6.15;2.42;;;17.60;50.00;;;;;;4968595;28;20454;-60
2021/03/17 07:29:05;;;;;;;8.10;2.53;;;17.60;49.80;;;;;;4968608;28;20567;-63
2021/03/17 07:31:30;;;;;;;7.90;2.42;;;17.60;49.70;;;;;;4986928;28;20043;-63
2021/03/17 07:34:26;;;;;;;2.38;1.77;;;17.60;49.50;;;;;;4988085;28;20418;-63
2021/03/17 07:37:03;;;;;;;6.03;2.28;;;17.60;49.50;;;;;;4986928;28;20034;-61
2021/03/17 07:39:35;;;;;;;9.40;2.47;;;17.60;49.30;;;;;;4986556;28;20038;-63
2021/03/17 07:42:02;;;;;;;5.93;2.40;;;17.60;49.00;;;;;;4987507;28;20085;-60
2021/03/17 07:44:27;;;;;;;6.53;2.65;;;17.70;49.00;;;;;;4987162;28;20042;-63
2021/03/17 07:46:58;;;;;;;4.78;2.25;;;17.70;48.80;;;;;;4987392;28;20049;-62
2021/03/17 07:49:27;;;;;;;4.57;2.08;;;17.70;48.80;;;;;;4987725;28;20068;-62
2021/03/17 07:51:57;;;;;;;5.00;2.05;;;17.70;48.60;;;;;;4987705;28;20030;-61
2021/03/17 07:54:27;;;;;;;7.78;2.88;;;17.70;48.80;;;;;;4986878;28;20034;-61
2021/03/17 07:56:52;;;;;;;10.32;3.28;;;17.70;49.20;;;;;;4985760;28;20030;-61
2021/03/17 07:59:18;;;;;;;10.23;3.00;;;17.70;49.50;;;;;;4987080;28;20112;-61
2021/03/17 08:01:45;;;;;;;8.93;3.15;;;17.70;49.70;;;;;;4985384;28;20030;-64
2021/03/17 08:04:11;;;;;;;10.48;3.13;;;17.70;50.00;;;;;;5000844;28;20138;-60
2021/03/17 08:06:36;;;;;;;12.77;3.67;;;17.60;50.30;;;;;;4985750;28;20109;-63
2021/03/17 08:09:02;;;;;;;7.93;2.90;;;17.50;50.90;;;;;;5001434;28;20037;-62
2021/03/17 08:11:28;;;;;;;11.23;3.13;;;17.40;51.50;;;;;;4985087;28;20402;-61
2021/03/17 08:13:54;;;;;;;11.63;3.40;;;17.40;51.80;;;;;;4971018;28;20045;-65
2021/03/17 08:16:21;;;;;;;10.48;2.95;;;17.40;52.20;;;;;;4982957;28;20035;-61
2021/03/17 08:18:48;;;;;;;13.98;3.28;;;17.40;52.20;;;;;;4982487;28;20037;-64
2021/03/17 08:21:13;;;;;;;16.15;4.22;;;17.50;52.30;;;;;;4979284;28;20041;-62
2021/03/17 08:23:45;;;;;;;8.60;2.47;;;17.50;52.50;;;;;;4987874;28;20038;-63
2021/03/17 08:26:12;;;;;;;10.88;3.10;;;17.50;52.60;;;;;;4986493;28;20039;-62
2021/03/17 08:28:47;;;;;;;10.52;2.63;;;17.50;52.70;;;;;;4987542;28;20037;-60
2021/03/17 08:31:36;;;;;;;9.98;2.67;;;17.50;52.70;;;;;;4984666;28;20030;-63
2021/03/17 08:34:20;;;;;;;19.55;3.55;;;17.50;52.60;;;;;;4978127;28;20126;-62
2021/03/17 08:36:55;;;;;;;8.05;2.70;;;17.50;52.80;;;;;;4999709;28;20073;-63
2021/03/17 08:39:38;;;;;;;;;;;17.50;52.60;;;;;;4978511;28;20054;-63
2021/03/17 08:42:03;;;;;;;13.30;3.30;;;17.60;52.60;;;;;;4984977;28;19940;-64
2021/03/17 08:44:30;;;;;;;8.45;2.67;;;17.60;52.80;;;;;;4988006;28;20426;-62
2021/03/17 08:47:12;;;;;;;9.55;2.47;;;17.60;53.00;;;;;;4975417;28;20027;-64
2021/03/17 08:49:38;;;;;;;8.73;2.42;;;17.60;52.80;;;;;;4987080;28;20048;-64
2021/03/17 08:52:05;;;;;;;10.57;3.00;;;17.70;53.20;;;;;;4989873;28;20493;-60
2021/03/17 08:54:31;;;;;;;7.40;2.67;;;17.70;53.50;;;;;;4978992;28;20042;-61
2021/03/17 08:57:09;;;;;;;9.30;2.00;;;17.70;53.70;;;;;;4974191;28;20035;-61
2021/03/17 08:59:45;;;;;;;8.52;2.55;;;17.70;53.90;;;;;;4953418;28;20074;-60
2021/03/17 09:02:25;;;;;;;9.55;3.00;;;17.70;53.40;;;;;;4974344;28;20044;-60
2021/03/17 09:04:50;;;;;;;8.80;2.50;;;17.80;53.80;;;;;;4977232;28;20035;-60
2021/03/17 09:07:16;;;;;;;5.28;2.22;;;17.80;53.50;;;;;;4987792;28;20060;-59
2021/03/17 09:10:09;;;;;;;9.90;2.97;;;17.80;53.20;;;;;;5003128;28;20097;-60
2021/03/17 09:12:34;;;;;;;7.85;2.70;;;17.70;53.30;;;;;;4985400;28;20658;-62
2021/03/17 09:15:15;;;;;;;6.60;2.83;;;17.70;53.10;;;;;;4988137;28;20089;-63
2021/03/17 09:17:49;;;;;;;6.40;2.75;;;17.70;52.90;;;;;;4988007;28;20042;-60
2021/03/17 09:20:24;;;;;;;8.68;2.50;;;17.70;53.00;;;;;;4987999;28;20559;-61
2021/03/17 09:23:02;;;;;;;4.67;2.47;;;17.70;52.50;;;;;;4982606;28;20050;-62
2021/03/17 09:25:30;;;;;;;8.73;3.03;;;17.70;52.80;;;;;;4987953;28;20786;-61
2021/03/17 09:27:56;;;;;;;6.03;2.65;;;17.70;52.60;;;;;;4988178;28;20031;-60
2021/03/17 09:30:24;;;;;;;4.90;2.28;;;17.70;52.30;;;;;;4987791;28;20045;-60
2021/03/17 09:32:50;;;;;;;5.70;2.50;;;17.70;52.00;;;;;;4987951;28;20074;-60
2021/03/17 09:35:16;;;;;;;6.43;2.80;;;17.70;51.80;;;;;;4970219;28;20661;-59
2021/03/17 09:37:41;;;;;;;5.45;2.58;;;17.80;51.30;;;;;;4987651;28;20050;-60
2021/03/17 09:40:07;;;;;;;8.10;2.97;;;17.80;51.20;;;;;;5003438;28;20049;-63
2021/03/17 09:42:36;;;;;;;4.57;2.47;;;17.80;51.10;;;;;;4988195;28;20177;-63
2021/03/17 09:45:06;;;;;;;4.70;2.65;;;17.80;50.90;;;;;;4987913;28;20069;-63
2021/03/17 09:47:32;;;;;;;6.00;3.55;;;17.90;50.80;;;;;;5001764;28;20046;-62
2021/03/17 09:49:57;;;;;;;5.78;2.20;;;17.90;50.60;;;;;;4974072;28;20453;-63
2021/03/17 09:52:23;;;;;;;4.22;2.92;;;17.90;50.30;;;;;;4968361;28;20507;-63
2021/03/17 09:54:49;;;;;;;5.43;2.40;;;17.80;50.30;;;;;;4977032;28;20486;-62
2021/03/17 09:57:14;;;;;;;4.13;2.40;;;17.90;50.20;;;;;;4977751;28;20037;-62
2021/03/17 09:59:41;;;;;;;4.63;2.70;;;17.80;50.00;;;;;;4971124;28;20035;-63
2021/03/17 10:02:12;;;;;;;4.80;2.25;;;17.90;50.70;;;;;;4980725;28;20414;-62
2021/03/17 10:04:45;;;;;;;6.88;2.85;;;17.80;50.00;;;;;;4989855;28;20075;-63
2021/03/17 10:07:21;;;;;;;5.40;2.65;;;17.90;49.80;;;;;;4973325;28;20038;-63
2021/03/17 10:09:47;;;;;;;5.63;2.72;;;17.80;49.80;;;;;;4975868;28;20039;-63
2021/03/17 10:12:19;;;;;;;3.42;3.00;;;17.90;49.60;;;;;;4981025;28;20115;-60
2021/03/17 10:14:57;;;;;;;4.05;2.90;;;17.90;49.80;;;;;;4988915;28;20038;-62
2021/03/17 10:17:24;;;;;;;5.95;2.95;;;17.90;49.80;;;;;;4973541;28;20031;-63
2021/03/17 10:19:51;;;;;;;4.57;2.45;;;17.90;49.70;;;;;;4976565;28;20050;-63
2021/03/17 10:22:17;;;;;;;3.60;2.60;;;17.90;49.80;;;;;;4996733;28;20034;-60
2021/03/17 10:24:45;;;;;;;4.47;2.53;;;17.90;49.60;;;;;;4987459;28;20039;-62
2021/03/17 10:27:20;;;;;;;3.65;2.70;;;17.80;49.60;;;;;;4985693;28;20046;-59
2021/03/17 10:29:47;;;;;;;3.67;2.30;;;17.90;49.70;;;;;;4987306;28;20041;-63
2021/03/17 10:32:14;;;;;;;7.57;3.00;;;17.90;49.60;;;;;;4969989;28;20507;-60
2021/03/17 10:34:39;;;;;;;5.15;2.47;;;17.90;49.60;;;;;;4969609;28;20031;-63
2021/03/17 10:37:09;;;;;;;5.68;3.05;;;17.90;49.50;;;;;;4990963;28;20033;-63
2021/03/17 10:39:35;;;;;;;5.28;3.03;;;17.80;49.40;;;;;;4961144;28;20057;-60
2021/03/17 10:42:01;;;;;;;5.68;2.75;;;17.90;49.40;;;;;;4992396;28;20034;-63
2021/03/17 10:44:28;;;;;;;3.17;2.17;;;17.90;49.40;;;;;;4992681;28;20037;-63
2021/03/17 10:47:09;;;;;;;3.78;2.80;;;17.90;49.40;;;;;;4992059;28;20031;-60
2021/03/17 10:49:46;;;;;;;3.90;2.60;;;17.80;49.30;;;;;;5006448;28;20113;-61
2021/03/17 10:52:11;;;;;;;3.13;2.33;;;17.80;49.60;;;;;;4989361;28;20030;-62
2021/03/17 10:54:39;;;;;;;4.70;2.80;;;17.80;49.30;;;;;;4986238;28;20038;-61
2021/03/17 10:57:04;;;;;;;5.13;2.95;;;17.80;49.40;;;;;;4991067;28;20035;-63
2021/03/17 10:59:31;;;;;;;4.22;3.03;;;17.80;49.20;;;;;;4990557;28;20724;-65
2021/03/17 11:02:22;;;;;;;3.35;2.30;;;17.80;49.20;;;;;;4991561;28;20042;-64
2021/03/17 11:05:09;;;;;;;4.13;2.92;;;17.80;49.10;;;;;;4997471;28;21708;-63
2021/03/17 11:07:56;;;;;;;3.13;2.40;;;17.80;49.00;;;;;;5005217;28;20031;-58
2021/03/17 11:10:51;;;;;;;5.80;2.75;;;17.80;48.70;;;;;;4990664;28;20401;-60
2021/03/17 11:13:19;;;;;;;3.50;2.53;;;17.80;48.70;;;;;;4989461;28;20698;-60
2021/03/17 11:15:58;;;;;;;5.65;2.67;;;17.90;48.60;;;;;;4990838;28;20054;-63
2021/03/17 11:18:25;;;;;;;4.03;2.50;;;17.80;48.50;;;;;;4990598;28;20569;-63
2021/03/17 11:20:50;;;;;;;2.90;2.50;;;17.80;48.40;;;;;;4990333;28;20050;-60
2021/03/17 11:23:20;;;;;;;3.05;2.25;;;17.80;48.40;;;;;;4990835;28;20036;-61
2021/03/17 11:25:46;;;;;;;4.47;2.88;;;17.80;48.50;;;;;;4991611;28;20068;-63
2021/03/17 11:28:12;;;;;;;3.83;2.50;;;17.80;48.50;;;;;;4991747;28;20053;-59
2021/03/17 11:30:51;;;;;;;3.45;2.65;;;17.80;48.50;;;;;;4993044;28;20044;-62
2021/03/17 11:33:17;;;;;;;2.92;2.30;;;17.80;48.50;;;;;;4992850;28;20038;-62
2021/03/17 11:35:43;;;;;;;4.40;2.63;;;17.80;48.60;;;;;;4975908;28;20108;-61
2021/03/17 11:38:09;;;;;;;4.10;2.22;;;17.80;48.60;;;;;;4992645;28;20034;-61
2021/03/17 11:40:34;;;;;;;2.65;2.22;;;17.80;48.60;;;;;;4992069;28;20042;-63
2021/03/17 11:43:27;;;;;;;3.30;2.53;;;17.80;48.60;;;;;;4992150;28;20031;-62
2021/03/17 11:45:53;;;;;;;2.80;2.50;;;17.80;48.60;;;;;;4996814;28;20093;-62
2021/03/17 11:48:18;;;;;;;2.70;2.15;;;17.80;48.50;;;;;;4990834;28;20038;-61
2021/03/17 11:50:46;;;;;;;4.90;2.35;;;17.80;48.50;;;;;;4988904;28;20046;-64
2021/03/17 11:53:13;;;;;;;5.32;2.55;;;17.80;48.50;;;;;;4990400;28;20039;-64
2021/03/17 11:55:38;;;;;;;3.13;2.53;;;17.70;48.60;;;;;;4989928;28;20062;-61
2021/03/17 11:58:04;;;;;;;3.33;2.33;;;17.70;48.60;;;;;;5004530;28;20449;-64
2021/03/17 12:00:30;;;;;;;2.72;2.20;;;17.70;48.70;;;;;;4990121;28;20100;-62
2021/03/17 12:02:55;;;;;;;4.75;2.72;;;17.70;48.80;;;;;;4989960;28;20660;-61
2021/03/17 12:05:21;;;;;;;4.47;2.97;;;17.70;48.90;;;;;;4990386;28;20045;-57
2021/03/17 12:07:47;;;;;;;3.60;2.45;;;17.70;49.10;;;;;;4989812;28;20077;-62
2021/03/17 12:10:13;;;;;;;3.28;2.25;;;17.70;49.20;;;;;;4989311;28;20034;-62
2021/03/17 12:12:38;;;;;;;2.55;2.30;;;17.70;49.30;;;;;;4989845;28;20074;-60
2021/03/17 12:15:06;;;;;;;3.05;2.20;;;17.70;49.90;;;;;;4987853;28;20034;-64
2021/03/17 12:17:31;;;;;;;3.78;2.40;;;17.70;49.30;;;;;;4988588;28;20092;-65
2021/03/17 12:19:57;;;;;;;3.85;2.28;;;17.70;49.40;;;;;;4989489;28;20565;-62
2021/03/17 12:22:22;;;;;;;2.92;2.15;;;17.70;50.00;;;;;;4988923;28;20045;-61
2021/03/17 12:24:48;;;;;;;3.15;2.28;;;17.70;49.30;;;;;;5004351;28;20046;-65
2021/03/17 12:27:14;;;;;;;4.72;2.33;;;17.70;49.20;;;;;;4988142;28;20695;-61
2021/03/17 12:29:39;;;;;;;5.00;2.38;;;17.70;49.30;;;;;;4955626;28;20109;-60
2021/03/17 12:32:05;;;;;;;3.67;1.83;;;17.80;49.30;;;;;;4988956;28;20049;-62
2021/03/17 12:34:32;;;;;;;2.28;1.80;;;17.70;49.20;;;;;;4988912;28;20030;-65
2021/03/17 12:36:58;;;;;;;2.75;2.38;;;17.70;49.30;;;;;;4988115;28;20042;-62
2021/03/17 12:39:23;;;;;;;4.40;2.45;;;17.80;49.50;;;;;;4989000;28;20518;-64
2021/03/17 12:41:49;;;;;;;4.07;2.55;;;17.80;49.70;;;;;;4987798;28;20038;-65
2021/03/17 12:44:14;;;;;;;4.28;2.78;;;17.80;49.60;;;;;;4989023;28;20620;-65
2021/03/17 12:46:40;;;;;;;5.47;2.47;;;17.80;49.70;;;;;;5003309;28;20037;-61
2021/03/17 12:49:05;;;;;;;4.65;2.10;;;17.70;49.60;;;;;;4988986;28;20034;-65
2021/03/17 12:51:31;;;;;;;2.35;2.15;;;17.80;49.80;;;;;;4982801;28;20100;-65
2021/03/17 12:53:56;;;;;;;3.53;2.25;;;17.70;49.60;;;;;;5004192;28;20122;-64